Portada
METAR-TAF:

METAR-TAF

Aeropuertos :

Aeropuerto de Rabat-Salé

Rabat, Marruecos

latitud: 34-03N, longitud: 006-46W, altitud: 84 m

Observación

El informe se hizo hace 21 minutos, a las 08:00 UTC
Viento 4 kt con dirección variable
Temperatura 13°C
Humedad 51%
Presión 1025 hPa
Visibilidad: 8000 m

METAR: GMME 220800Z VRB04KT 8000 NSC 13/03 Q1025 NOSIG

Hora: 08:21 (08:21 UTC)

Pronóstico

El informe se hizo hace 3 horas y 21 minutos, a las 05:00 UTC
Pronóstico válido del 22 a las 06 UTC al 23 a las 12 UTC
Viento 8 kt del norte-noroeste
Visibilidad: 8000 m
Probabilidad 30% :
Temporalmente
del 23 a las 02 UTC al 23 a las 08 UTC
Viento 2 kt con dirección variable
Visibilidad: 3000 m
Nubes dispersas a una altura de 800 ft
neblina

TAF: GMME 220500Z 2206/2312 34008KT 8000 NSC PROB30 TEMPO 2302/2308 VRB02KT 3000 BR SCT008

Observaciones y pronósticos meteorológicos de más de 4000 aeropuertos (mensajes METAR y TAF).

Los puntos amarillos y rojos representan las estaciones disponibles.

Ponga el ratón en el punto deseado para ver el nombre de la estación.

Haga clic para ver las observaciones y los pronósticos meteorológicos.

Para cambiar el mapa : haga clic en los botones verdes con una cruz de color negro para hacer un zoom, en el botón verde con un guión para alejar o en las flechas verdes para mapas adyacentes.


METAR-TAF: